createdAt,value
2023-02-25T00:01:21.757Z,4.63
2023-02-25T00:03:48.424Z,5.78
2023-02-25T00:06:15.164Z,4.85
2023-02-25T00:08:46.132Z,4.95
2023-02-25T00:11:14.661Z,4.43
2023-02-25T00:13:42.284Z,4.85
2023-02-25T00:16:10.315Z,4.78
2023-02-25T00:18:37.044Z,3.75
2023-02-25T00:21:09.491Z,3.67
2023-02-25T00:23:36.404Z,4.60
2023-02-25T00:26:07.016Z,4.50
2023-02-25T00:28:34.848Z,4.60
2023-02-25T00:31:09.509Z,4.88
2023-02-25T00:33:37.381Z,4.25
2023-02-25T00:36:08.580Z,4.90
2023-02-25T00:38:36.348Z,5.47
2023-02-25T00:41:15.070Z,5.22
2023-02-25T00:43:44.650Z,6.18
2023-02-25T00:46:11.762Z,5.93
2023-02-25T00:48:39.265Z,6.50
2023-02-25T00:51:11.588Z,5.30
2023-02-25T00:53:38.661Z,5.45
2023-02-25T00:56:07.751Z,6.45
2023-02-25T00:58:38.686Z,5.50
2023-02-25T01:01:06.803Z,5.97
2023-02-25T01:03:33.431Z,6.03
2023-02-25T01:06:00.265Z,5.75
2023-02-25T01:08:27.125Z,5.70
2023-02-25T01:10:53.717Z,6.55
2023-02-25T01:13:20.412Z,5.15
2023-02-25T01:15:47.048Z,4.80
2023-02-25T01:18:13.645Z,4.20
2023-02-25T01:20:40.479Z,4.50
2023-02-25T01:23:07.386Z,3.90
2023-02-25T01:25:34.025Z,4.38
2023-02-25T01:28:00.759Z,4.20
2023-02-25T01:30:27.397Z,3.40
2023-02-25T01:32:54.113Z,3.83
2023-02-25T01:35:20.774Z,3.58
2023-02-25T01:37:49.785Z,2.67
2023-02-25T01:40:17.917Z,3.08
2023-02-25T01:42:47.699Z,2.70
2023-02-25T01:45:32.707Z,2.33
2023-02-25T01:48:09.444Z,3.53
2023-02-25T01:50:43.642Z,2.97
2023-02-25T01:53:10.425Z,2.50
2023-02-25T01:55:40.129Z,2.58
2023-02-25T01:58:09.308Z,2.00
2023-02-25T02:00:36.705Z,2.22
2023-02-25T02:03:04.669Z,2.45
2023-02-25T02:05:46.607Z,2.40
2023-02-25T02:08:13.630Z,2.17
2023-02-25T02:10:40.240Z,2.20
2023-02-25T02:13:06.970Z,1.65
2023-02-25T02:15:41.094Z,2.00
2023-02-25T02:18:09.223Z,1.80
2023-02-25T02:21:18.014Z,1.83
2023-02-25T02:24:10.516Z,1.77
2023-02-25T02:26:57.816Z,1.80
2023-02-25T02:29:48.261Z,1.80
2023-02-25T02:32:57.538Z,1.92
2023-02-25T02:35:36.711Z,2.10
2023-02-25T02:38:26.666Z,1.52
2023-02-25T02:41:27.770Z,1.80
2023-02-25T02:44:02.239Z,1.80
2023-02-25T02:46:38.343Z,1.55
2023-02-25T02:49:49.518Z,1.23
2023-02-25T02:52:24.231Z,1.40
2023-02-25T02:54:56.985Z,1.50
2023-02-25T02:57:27.969Z,1.30
2023-02-25T03:00:12.623Z,1.20
2023-02-25T03:02:41.086Z,0.70
2023-02-25T03:05:12.386Z,0.80
2023-02-25T03:07:45.275Z,0.68
2023-02-25T03:10:18.123Z,0.80
2023-02-25T03:12:44.741Z,0.70
2023-02-25T03:15:11.568Z,0.80
2023-02-25T03:18:06.908Z,0.70
2023-02-25T03:20:42.146Z,1.08
2023-02-25T03:23:14.289Z,0.65
2023-02-25T03:25:59.567Z,0.90
2023-02-25T03:28:32.708Z,0.50
2023-02-25T03:31:07.761Z,0.57
2023-02-25T03:34:07.816Z,0.70
2023-02-25T03:36:40.042Z,0.52
2023-02-25T03:39:12.306Z,0.65
2023-02-25T03:41:44.670Z,0.60
2023-02-25T03:44:20.860Z,0.55
2023-02-25T03:46:48.380Z,0.55
2023-02-25T03:49:38.811Z,0.57
2023-02-25T03:52:13.768Z,24.38
2023-02-25T03:54:40.641Z,93.50
2023-02-25T03:57:07.253Z,76.55
2023-02-25T03:59:33.882Z,19.27
2023-02-25T04:02:01.339Z,28.17
2023-02-25T04:04:28.168Z,6.28
2023-02-25T04:06:54.865Z,4.38
2023-02-25T04:09:21.459Z,2.30
2023-02-25T04:11:49.147Z,5.78
2023-02-25T04:14:16.068Z,3.42
2023-02-25T04:16:42.874Z,1.70
2023-02-25T04:19:09.436Z,0.60
2023-02-25T04:21:37.277Z,0.60
2023-02-25T04:24:06.689Z,0.80
2023-02-25T04:26:34.649Z,0.43
2023-02-25T04:29:01.768Z,0.55
2023-02-25T04:31:28.535Z,0.50
2023-02-25T04:33:57.961Z,0.50
2023-02-25T04:36:35.991Z,0.50
2023-02-25T04:39:05.063Z,0.60
2023-02-25T04:41:33.712Z,0.50
2023-02-25T04:44:00.632Z,0.50
2023-02-25T04:46:27.370Z,0.50
2023-02-25T04:48:54.088Z,0.50
2023-02-25T04:51:21.260Z,0.40
2023-02-25T04:53:48.497Z,0.50
2023-02-25T04:56:15.948Z,0.55
2023-02-25T04:58:42.994Z,0.50
2023-02-25T05:01:10.724Z,0.40
2023-02-25T05:03:38.258Z,0.50
2023-02-25T05:06:06.060Z,1.20
2023-02-25T05:08:33.810Z,0.70
2023-02-25T05:11:01.003Z,0.80
2023-02-25T05:13:28.638Z,0.80
2023-02-25T05:16:11.349Z,0.88
2023-02-25T05:21:09.926Z,1.50
2023-02-25T05:23:36.450Z,1.05
2023-02-25T05:26:03.224Z,0.82
2023-02-25T05:28:29.829Z,1.00
2023-02-25T05:30:56.854Z,0.77
2023-02-25T05:33:23.929Z,0.70
2023-02-25T05:35:51.004Z,0.70
2023-02-25T05:38:17.589Z,8.35
2023-02-25T05:40:44.224Z,1.08
2023-02-25T05:43:10.834Z,1.52
2023-02-25T05:45:37.430Z,1.65
2023-02-25T05:48:04.134Z,0.90
2023-02-25T05:50:34.467Z,1.30
2023-02-25T05:53:01.090Z,0.77
2023-02-25T05:55:27.709Z,1.90
2023-02-25T05:57:54.309Z,1.20
2023-02-25T06:00:21.533Z,1.90
2023-02-25T06:02:48.313Z,1.65
2023-02-25T06:05:14.922Z,1.08
2023-02-25T06:07:41.537Z,1.00
2023-02-25T06:10:08.972Z,1.13
2023-02-25T06:12:38.106Z,0.70
2023-02-25T06:15:05.098Z,0.70
2023-02-25T06:17:31.694Z,1.02
2023-02-25T06:19:58.483Z,1.30
2023-02-25T06:22:25.095Z,0.90
2023-02-25T06:24:51.676Z,3.25
2023-02-25T06:27:18.748Z,3.25
2023-02-25T06:29:47.765Z,2.35
2023-02-25T06:32:15.271Z,1.60
2023-02-25T06:34:41.920Z,0.75
2023-02-25T06:37:08.885Z,1.15
2023-02-25T06:39:35.493Z,1.20
2023-02-25T06:42:02.183Z,0.90
2023-02-25T06:44:29.538Z,2.08
2023-02-25T06:46:56.182Z,1.90
2023-02-25T06:49:23.641Z,1.98
2023-02-25T06:51:50.441Z,1.65
2023-02-25T06:54:17.761Z,2.10
2023-02-25T06:56:44.856Z,2.30
2023-02-25T06:59:11.459Z,2.60
2023-02-25T07:01:38.188Z,3.70
2023-02-25T07:04:05.127Z,2.85
2023-02-25T07:06:31.806Z,5.97
2023-02-25T07:08:58.457Z,2.40
2023-02-25T07:11:29.639Z,1.88
2023-02-25T07:13:56.820Z,2.38
2023-02-25T07:16:23.902Z,2.72
2023-02-25T07:18:50.982Z,2.33
2023-02-25T07:21:17.996Z,2.03
2023-02-25T07:23:44.953Z,1.90
2023-02-25T07:26:13.215Z,2.38
2023-02-25T07:28:40.304Z,2.80
2023-02-25T07:31:13.605Z,2.17
2023-02-25T07:33:41.807Z,2.00
2023-02-25T07:36:09.103Z,1.83
2023-02-25T07:38:35.895Z,2.30
2023-02-25T07:41:07.472Z,2.05
2023-02-25T07:43:34.109Z,2.23
2023-02-25T07:46:01.209Z,2.00
2023-02-25T07:48:28.186Z,1.88
2023-02-25T07:50:55.476Z,1.88
2023-02-25T07:53:22.699Z,2.28
2023-02-25T07:55:50.364Z,2.25
2023-02-25T07:58:17.075Z,2.10
2023-02-25T08:00:45.829Z,2.17
2023-02-25T08:03:12.532Z,2.35
2023-02-25T08:05:39.210Z,2.47
2023-02-25T08:08:06.148Z,2.15
2023-02-25T08:10:32.876Z,2.30
2023-02-25T08:12:59.508Z,2.50
2023-02-25T08:15:26.266Z,2.13
2023-02-25T08:17:55.397Z,2.50
2023-02-25T08:20:24.263Z,2.00
2023-02-25T08:22:51.156Z,2.78
2023-02-25T08:25:17.973Z,3.00
2023-02-25T08:27:44.691Z,3.47
2023-02-25T08:30:12.453Z,2.65
2023-02-25T08:32:39.587Z,2.75
2023-02-25T08:35:06.615Z,3.10
2023-02-25T08:37:33.593Z,2.70
2023-02-25T08:40:00.271Z,3.50
2023-02-25T08:42:27.380Z,3.10
2023-02-25T08:44:53.982Z,2.97
2023-02-25T08:47:20.609Z,2.45
2023-02-25T08:49:47.609Z,2.78
2023-02-25T08:52:14.897Z,2.67
2023-02-25T08:54:41.542Z,3.25
2023-02-25T08:57:08.171Z,2.50
2023-02-25T08:59:35.982Z,2.17
2023-02-25T09:02:07.445Z,2.30
2023-02-25T09:04:34.574Z,2.70
2023-02-25T09:07:02.194Z,2.90
2023-02-25T09:09:28.971Z,2.70
2023-02-25T09:11:55.862Z,2.72
2023-02-25T09:14:22.888Z,2.38
2023-02-25T09:16:49.594Z,2.88
2023-02-25T09:19:17.982Z,2.17
2023-02-25T09:21:48.378Z,3.25
2023-02-25T09:24:15.428Z,2.70
2023-02-25T09:26:42.058Z,2.58
2023-02-25T09:29:08.988Z,3.00
2023-02-25T09:31:37.527Z,3.75
2023-02-25T09:34:07.470Z,3.88
2023-02-25T09:36:34.566Z,3.58
2023-02-25T09:39:01.552Z,3.75
2023-02-25T09:42:07.347Z,3.22
2023-02-25T09:44:48.144Z,3.25
2023-02-25T09:47:23.288Z,2.40
2023-02-25T09:50:00.481Z,3.55
2023-02-25T09:52:42.967Z,2.95
2023-02-25T09:55:23.681Z,2.78
2023-02-25T09:58:16.574Z,2.95
2023-02-25T10:03:24.220Z,2.38
2023-02-25T10:06:11.624Z,3.00
2023-02-25T10:08:54.934Z,2.58
2023-02-25T10:11:31.968Z,2.58
2023-02-25T10:14:25.332Z,2.97
2023-02-25T10:17:25.961Z,2.97
2023-02-25T10:20:27.471Z,2.80
2023-02-25T10:23:24.676Z,3.90
2023-02-25T10:25:59.746Z,2.60
2023-02-25T10:28:28.933Z,2.05
2023-02-25T10:31:05.574Z,2.55
2023-02-25T10:33:36.967Z,2.28
2023-02-25T10:36:14.980Z,2.42
2023-02-25T10:38:59.254Z,2.42
2023-02-25T10:41:27.014Z,1.98
2023-02-25T10:43:55.534Z,2.50
2023-02-25T10:46:41.790Z,2.08
2023-02-25T10:49:21.375Z,2.35
2023-02-25T10:52:14.112Z,2.10
2023-02-25T10:54:49.082Z,2.65
2023-02-25T10:57:26.322Z,2.55
2023-02-25T11:00:13.292Z,1.52
2023-02-25T11:02:43.996Z,1.85
2023-02-25T11:05:32.230Z,2.15
2023-02-25T11:07:58.867Z,2.33
2023-02-25T11:10:25.532Z,1.67
2023-02-25T11:12:54.618Z,2.60
2023-02-25T11:15:43.197Z,2.03
2023-02-25T11:18:29.526Z,1.90
2023-02-25T11:21:01.921Z,2.10
2023-02-25T11:23:49.302Z,2.10
2023-02-25T11:26:27.227Z,1.83
2023-02-25T11:28:55.402Z,2.40
2023-02-25T11:31:25.034Z,2.50
2023-02-25T11:34:01.297Z,2.10
2023-02-25T11:36:36.824Z,2.72
2023-02-25T11:39:24.903Z,1.50
2023-02-25T11:41:57.564Z,2.03
2023-02-25T11:44:30.829Z,2.03
2023-02-25T11:47:03.799Z,2.30
2023-02-25T11:49:41.205Z,2.63
2023-02-25T11:52:34.494Z,2.50
2023-02-25T11:55:19.681Z,2.88
2023-02-25T11:58:23.811Z,2.67
2023-02-25T12:01:03.175Z,2.35
2023-02-25T12:04:04.841Z,2.72
2023-02-25T12:07:24.149Z,2.55
2023-02-25T12:10:44.558Z,2.83
2023-02-25T12:13:17.133Z,3.00
2023-02-25T12:19:07.999Z,3.72
2023-02-25T12:22:13.157Z,3.00
2023-02-25T12:46:26.601Z,2.60
2023-02-25T12:52:18.362Z,2.33
2023-02-25T12:55:09.621Z,2.40
2023-02-25T12:57:49.838Z,2.88
2023-02-25T13:01:05.917Z,2.50
2023-02-25T13:04:37.166Z,2.40
2023-02-25T13:07:26.616Z,2.70
2023-02-25T13:10:32.086Z,2.30
2023-02-25T13:13:43.963Z,2.38
2023-02-25T13:16:55.018Z,2.33
2023-02-25T13:20:03.496Z,2.78
2023-02-25T13:23:07.553Z,2.40
2023-02-25T13:26:24.813Z,2.67
2023-02-25T13:41:59.877Z,2.80
2023-02-25T13:48:27.124Z,2.97
2023-02-25T13:51:16.261Z,2.50
2023-02-25T13:54:14.501Z,3.15
2023-02-25T13:56:59.004Z,3.10
2023-02-25T13:59:57.991Z,2.83
2023-02-25T14:02:59.921Z,2.58
2023-02-25T14:06:14.856Z,3.08
2023-02-25T14:09:15.038Z,3.05
2023-02-25T14:12:12.012Z,3.38
2023-02-25T14:15:17.992Z,2.70
2023-02-25T14:18:15.579Z,3.22
2023-02-25T14:21:31.678Z,2.53
2023-02-25T14:24:32.043Z,3.05
2023-02-25T14:27:20.815Z,4.10
2023-02-25T14:30:27.835Z,2.35
2023-02-25T14:33:12.840Z,3.03
2023-02-25T14:36:16.535Z,2.72
2023-02-25T14:39:21.842Z,3.15
2023-02-25T14:42:39.532Z,2.90
2023-02-25T14:45:21.239Z,3.47
2023-02-25T14:48:06.059Z,2.55
2023-02-25T14:50:58.015Z,3.15
2023-02-25T14:54:06.677Z,4.30
2023-02-25T14:56:48.920Z,4.10
2023-02-25T15:00:05.214Z,2.70
2023-02-25T15:03:02.092Z,4.13
2023-02-25T15:05:55.522Z,2.30
2023-02-25T15:09:14.613Z,2.75
2023-02-25T15:12:05.927Z,2.67
2023-02-25T15:49:33.452Z,2.08
2023-02-25T15:52:04.317Z,2.10
2023-02-25T15:54:46.602Z,2.05
2023-02-25T15:57:34.637Z,1.90
2023-02-25T16:00:01.473Z,1.95
2023-02-25T16:02:52.928Z,1.70
2023-02-25T16:05:24.742Z,1.92
2023-02-25T16:08:03.226Z,2.17
2023-02-25T16:10:38.387Z,1.98
2023-02-25T16:13:05.077Z,1.67
2023-02-25T16:15:42.407Z,2.20
2023-02-25T16:18:45.432Z,1.83
2023-02-25T16:21:23.631Z,1.70
2023-02-25T16:23:51.070Z,1.80
2023-02-25T16:27:01.557Z,2.03
2023-02-25T16:30:10.056Z,1.63
2023-02-25T16:33:20.467Z,1.83
2023-02-25T16:36:11.164Z,1.90
2023-02-25T16:38:53.796Z,1.73
2023-02-25T16:41:23.994Z,1.85
2023-02-25T16:43:54.867Z,1.40
2023-02-25T16:46:28.080Z,2.20
2023-02-25T16:49:02.935Z,1.88
2023-02-25T16:51:34.466Z,1.70
2023-02-25T16:54:14.273Z,1.65
2023-02-25T16:56:43.097Z,1.33
2023-02-25T16:59:21.843Z,1.63
2023-02-25T17:01:59.490Z,1.30
2023-02-25T17:04:33.116Z,1.88
2023-02-25T17:07:22.303Z,1.83
2023-02-25T17:09:52.158Z,1.80
2023-02-25T17:12:30.355Z,2.70
2023-02-25T17:14:59.768Z,2.10
2023-02-25T17:17:33.159Z,1.95
2023-02-25T17:20:04.585Z,1.83
2023-02-25T17:22:32.782Z,2.30
2023-02-25T17:25:00.195Z,1.60
2023-02-25T17:27:28.522Z,1.95
2023-02-25T17:29:55.431Z,1.77
2023-02-25T17:32:28.289Z,2.00
2023-02-25T17:34:59.907Z,4.53
2023-02-25T17:37:29.390Z,11.43
2023-02-25T17:39:56.875Z,3.08
2023-02-25T17:42:38.962Z,1.77
2023-02-25T17:45:27.058Z,2.50
2023-02-25T17:47:53.796Z,1.88
2023-02-25T17:50:29.748Z,4.00
2023-02-25T17:52:58.368Z,4.80
2023-02-25T17:55:33.532Z,2.20
2023-02-25T17:58:01.932Z,2.03
2023-02-25T18:00:37.885Z,1.92
2023-02-25T18:03:20.044Z,1.67
2023-02-25T18:05:59.160Z,2.35
2023-02-25T18:08:30.179Z,2.05
2023-02-25T18:11:24.076Z,1.77
2023-02-25T18:13:51.081Z,1.20
2023-02-25T18:16:44.800Z,1.63
2023-02-25T18:19:38.628Z,1.00
2023-02-25T18:22:07.470Z,0.80
2023-02-25T18:24:37.657Z,0.90
2023-02-25T18:27:27.534Z,0.80
2023-02-25T18:29:57.854Z,0.98
2023-02-25T18:32:24.501Z,0.93
2023-02-25T18:34:51.115Z,1.00
2023-02-25T18:37:18.794Z,0.95
2023-02-25T18:39:48.800Z,0.75
2023-02-25T18:42:16.786Z,0.90
2023-02-25T18:44:44.950Z,0.88
2023-02-25T18:47:11.568Z,0.60
2023-02-25T18:49:38.215Z,0.70
2023-02-25T18:52:10.458Z,0.80
2023-02-25T18:54:37.093Z,0.85
2023-02-25T18:57:04.234Z,0.80
2023-02-25T18:59:30.839Z,0.73
2023-02-25T19:01:57.472Z,0.70
2023-02-25T19:04:24.282Z,0.70
2023-02-25T19:06:50.868Z,0.68
2023-02-25T19:09:17.517Z,0.63
2023-02-25T19:11:44.173Z,0.75
2023-02-25T19:14:17.621Z,0.98
2023-02-25T19:16:44.252Z,0.70
2023-02-25T19:19:10.893Z,0.80
2023-02-25T19:21:37.512Z,0.68
2023-02-25T19:24:04.576Z,1.25
2023-02-25T19:26:31.214Z,0.88
2023-02-25T19:28:57.829Z,0.68
2023-02-25T19:31:24.479Z,0.95
2023-02-25T19:33:51.116Z,0.80
2023-02-25T19:36:17.739Z,0.95
2023-02-25T19:38:44.500Z,1.00
2023-02-25T19:41:13.806Z,1.05
2023-02-25T19:43:40.476Z,1.35
2023-02-25T19:46:08.667Z,1.27
2023-02-25T19:48:35.376Z,1.00
2023-02-25T19:51:06.610Z,0.98
2023-02-25T19:53:33.872Z,0.80
2023-02-25T19:56:02.977Z,0.80
2023-02-25T19:58:31.899Z,0.82
2023-02-25T20:01:06.991Z,0.80
2023-02-25T20:03:33.964Z,1.00
2023-02-25T20:06:22.236Z,0.80
2023-02-25T20:08:53.711Z,0.88
2023-02-25T20:11:20.360Z,0.70
2023-02-25T20:13:47.156Z,0.90
2023-02-25T20:16:13.852Z,0.70
2023-02-25T20:18:43.437Z,0.90
2023-02-25T20:21:10.050Z,0.90
2023-02-25T20:23:38.326Z,1.00
2023-02-25T20:26:09.562Z,1.00
2023-02-25T20:28:36.740Z,0.75
2023-02-25T20:31:09.742Z,0.98
2023-02-25T20:33:37.492Z,1.00
2023-02-25T20:36:17.985Z,0.90
2023-02-25T20:39:15.833Z,0.90
2023-02-25T20:41:44.799Z,1.00
2023-02-25T20:44:12.704Z,1.10
2023-02-25T20:46:40.929Z,1.27
2023-02-25T20:49:12.036Z,1.27
2023-02-25T20:51:39.113Z,1.00
2023-02-25T20:54:06.244Z,0.90
2023-02-25T20:56:34.593Z,1.02
2023-02-25T20:59:01.601Z,1.15
2023-02-25T21:01:28.560Z,0.98
2023-02-25T21:03:55.751Z,0.90
2023-02-25T21:06:24.674Z,1.10
2023-02-25T21:08:52.171Z,1.00
2023-02-25T21:11:19.938Z,0.90
2023-02-25T21:13:47.576Z,1.20
2023-02-25T21:16:15.937Z,1.52
2023-02-25T21:18:44.219Z,2.00
2023-02-25T21:21:13.342Z,1.48
2023-02-25T21:23:41.079Z,1.60
2023-02-25T21:26:09.279Z,1.42
2023-02-25T21:28:36.217Z,1.60
2023-02-25T21:31:08.902Z,1.75
2023-02-25T21:33:37.198Z,1.90
2023-02-25T21:36:04.866Z,1.90
2023-02-25T21:38:31.713Z,1.70
2023-02-25T21:41:06.245Z,1.80
2023-02-25T21:43:33.213Z,2.13
2023-02-25T21:46:01.882Z,1.73
2023-02-25T21:48:30.760Z,1.60
2023-02-25T21:50:58.018Z,2.00
2023-02-25T21:53:27.407Z,2.05
2023-02-25T21:55:55.019Z,1.73
2023-02-25T21:58:22.221Z,1.90
2023-02-25T22:00:49.016Z,1.70
2023-02-25T22:03:15.765Z,1.95
2023-02-25T22:05:46.573Z,2.00
2023-02-25T22:08:14.110Z,1.50
2023-02-25T22:10:40.898Z,1.67
2023-02-25T22:13:08.467Z,2.00
2023-02-25T22:15:35.559Z,3.47
2023-02-25T22:18:02.227Z,1.67
2023-02-25T22:20:29.047Z,2.20
2023-02-25T22:22:57.993Z,2.10
2023-02-25T22:25:24.866Z,2.15
2023-02-25T22:27:52.184Z,2.00
2023-02-25T22:30:21.520Z,4.57
2023-02-25T22:32:48.334Z,2.42
2023-02-25T22:35:15.455Z,2.25
2023-02-25T22:37:42.124Z,3.00
2023-02-25T22:40:09.604Z,2.83
2023-02-25T22:42:36.245Z,2.70
2023-02-25T22:45:03.020Z,2.60
2023-02-25T22:47:29.663Z,2.45
2023-02-25T22:49:56.327Z,2.50
2023-02-25T22:52:23.045Z,2.78
2023-02-25T22:54:49.668Z,2.85
2023-02-25T22:57:16.330Z,2.85
2023-02-25T22:59:42.981Z,2.67
2023-02-25T23:02:09.596Z,2.70
2023-02-25T23:04:36.577Z,2.38
2023-02-25T23:07:03.213Z,2.80
2023-02-25T23:09:29.843Z,2.20
2023-02-25T23:11:56.608Z,2.60
2023-02-25T23:14:24.013Z,2.92
2023-02-25T23:16:51.335Z,3.08
2023-02-25T23:19:18.655Z,3.13
2023-02-25T23:21:45.801Z,3.15
2023-02-25T23:24:18.624Z,2.72
2023-02-25T23:26:47.761Z,3.00
2023-02-25T23:29:14.497Z,3.40
2023-02-25T23:31:46.934Z,2.95
2023-02-25T23:34:24.280Z,2.78
2023-02-25T23:36:54.073Z,3.03
2023-02-25T23:39:20.711Z,2.50
2023-02-25T23:44:15.667Z,3.03
2023-02-25T23:46:43.335Z,3.17
2023-02-25T23:49:13.058Z,3.00
2023-02-25T23:51:43.562Z,3.08
2023-02-25T23:54:14.289Z,3.53
2023-02-25T23:56:41.251Z,3.28
2023-02-25T23:59:08.858Z,3.10
